Time;durP1;ratioP1;P1;durP2;ratioP2;P2;SDS_P1;SDS_P2;PMS_P1;PMS_P2;Temp;Humidity;BMP_temperature;BMP_pressure;BME280_temperature;BME280_humidity;BME280_pressure;Samples;Min_cycle;Max_cycle;Signal;HPM_P1;HPM_P2
2024/01/24 00:00:21;;;;;;;8.27;3.13;;;5.10;99.90;;;;;;5047082;28;20175;-59
2024/01/24 00:02:48;;;;;;;7.80;2.37;;;5.10;99.90;;;;;;5039517;28;20206;-61
2024/01/24 00:05:14;;;;;;;9.00;3.30;;;5.10;99.90;;;;;;5034954;28;20630;-60
2024/01/24 00:07:39;;;;;;;8.20;3.87;;;5.10;99.90;;;;;;5034362;28;20529;-60
2024/01/24 00:10:06;;;;;;;4.13;2.33;;;5.10;99.90;;;;;;5034416;28;20508;-60
2024/01/24 00:12:31;;;;;;;7.70;3.30;;;5.10;99.90;;;;;;5031363;28;20186;-60
2024/01/24 00:14:57;;;;;;;10.70;3.57;;;5.10;99.90;;;;;;5038296;28;20406;-60
2024/01/24 00:17:23;;;;;;;9.67;3.23;;;5.10;99.90;;;;;;5047393;28;20191;-60
2024/01/24 00:19:48;;;;;;;4.80;2.20;;;5.20;99.90;;;;;;5036047;28;20179;-60
2024/01/24 00:22:14;;;;;;;3.60;2.90;;;5.20;99.90;;;;;;5039292;28;20199;-58
2024/01/24 00:24:40;;;;;;;9.10;3.07;;;5.20;99.90;;;;;;5041766;28;20207;-60
2024/01/24 00:27:06;;;;;;;3.93;2.33;;;5.20;99.90;;;;;;5043730;28;20617;-60
2024/01/24 00:29:31;;;;;;;8.70;2.73;;;5.20;99.90;;;;;;5040772;28;20407;-60
2024/01/24 00:31:57;;;;;;;5.37;3.23;;;5.20;99.90;;;;;;5041646;28;20463;-57
2024/01/24 00:34:23;;;;;;;5.70;3.70;;;5.20;99.90;;;;;;5048980;28;20167;-60
2024/01/24 00:36:51;;;;;;;6.90;2.93;;;5.30;99.90;;;;;;5036446;28;20179;-58
2024/01/24 00:39:17;;;;;;;3.30;2.40;;;5.30;99.90;;;;;;5044463;28;20203;-60
2024/01/24 00:41:43;;;;;;;6.33;2.40;;;5.30;99.90;;;;;;5047502;28;20449;-61
2024/01/24 00:44:09;;;;;;;8.90;2.83;;;5.40;99.90;;;;;;5043559;28;20259;-60
2024/01/24 00:46:35;;;;;;;16.77;4.30;;;5.40;99.90;;;;;;5040525;28;20406;-59
2024/01/24 00:49:02;;;;;;;3.63;2.50;;;5.40;99.90;;;;;;5038530;28;20425;-59
2024/01/24 00:51:28;;;;;;;4.23;2.80;;;5.40;99.90;;;;;;5034588;28;20771;-61
2024/01/24 00:53:54;;;;;;;6.50;2.53;;;5.40;99.90;;;;;;5043031;28;20421;-59
2024/01/24 00:56:20;;;;;;;7.70;2.67;;;5.40;99.90;;;;;;5040020;28;20297;-59
2024/01/24 00:58:46;;;;;;;15.73;3.10;;;5.50;99.90;;;;;;5057492;28;20581;-59
2024/01/24 01:01:12;;;;;;;9.07;2.80;;;5.50;99.90;;;;;;5054415;28;20463;-59
2024/01/24 01:03:38;;;;;;;5.97;3.43;;;5.50;99.90;;;;;;5036184;28;20449;-59
2024/01/24 01:06:04;;;;;;;8.30;2.43;;;5.50;99.90;;;;;;5047984;28;20176;-62
2024/01/24 01:08:30;;;;;;;7.63;3.07;;;5.60;99.90;;;;;;5049606;28;20963;-59
2024/01/24 01:10:56;;;;;;;6.00;2.40;;;5.60;99.90;;;;;;5045878;28;20455;-60
2024/01/24 01:13:22;;;;;;;6.70;2.30;;;5.60;99.90;;;;;;5050690;28;20245;-59
2024/01/24 01:15:48;;;;;;;7.23;2.23;;;5.60;99.90;;;;;;5062682;28;20656;-59
2024/01/24 01:18:13;;;;;;;8.03;2.40;;;5.70;99.90;;;;;;5047701;28;20524;-60
2024/01/24 01:20:39;;;;;;;9.30;2.83;;;5.70;99.90;;;;;;5036585;28;20183;-59
2024/01/24 01:23:04;;;;;;;3.97;2.30;;;5.70;99.90;;;;;;5040311;28;20541;-59
2024/01/24 01:25:30;;;;;;;5.80;2.53;;;5.70;99.90;;;;;;5053528;28;20170;-61
2024/01/24 01:27:56;;;;;;;2.67;2.47;;;5.80;99.90;;;;;;5047633;28;20274;-59
2024/01/24 01:30:23;;;;;;;3.27;1.80;;;5.80;99.90;;;;;;5047559;28;20641;-59
2024/01/24 01:32:52;;;;;;;5.70;2.37;;;5.80;99.90;;;;;;5045301;28;20175;-58
2024/01/24 01:35:18;;;;;;;6.67;2.50;;;5.80;99.90;;;;;;5050434;28;21019;-60
2024/01/24 01:37:43;;;;;;;5.53;1.93;;;5.90;99.90;;;;;;5044687;28;20508;-60
2024/01/24 01:40:10;;;;;;;9.90;2.20;;;5.90;99.90;;;;;;5037969;28;20544;-60
2024/01/24 01:42:36;;;;;;;6.20;1.93;;;5.90;99.90;;;;;;5046371;28;20212;-58
2024/01/24 01:45:05;;;;;;;3.30;1.83;;;5.90;99.90;;;;;;5049433;28;20429;-59
2024/01/24 01:47:30;;;;;;;6.40;1.77;;;6.00;99.90;;;;;;5038782;28;20189;-58
2024/01/24 01:49:56;;;;;;;5.83;2.40;;;6.00;99.90;;;;;;5039681;28;20984;-58
2024/01/24 01:52:24;;;;;;;3.60;1.70;;;6.10;99.90;;;;;;5037999;28;20180;-59
2024/01/24 01:54:51;;;;;;;2.63;2.00;;;6.10;99.90;;;;;;5033690;28;20271;-57
2024/01/24 01:57:17;;;;;;;2.30;1.50;;;6.10;99.90;;;;;;5033929;28;20928;-59
2024/01/24 01:59:44;;;;;;;3.63;1.73;;;6.10;99.90;;;;;;5033735;28;20418;-60
2024/01/24 02:02:10;;;;;;;3.27;1.90;;;6.20;99.90;;;;;;5036946;28;20190;-59
2024/01/24 02:04:36;;;;;;;2.50;1.63;;;6.20;99.90;;;;;;5042043;28;20411;-59
2024/01/24 02:07:02;;;;;;;4.33;2.27;;;6.20;99.90;;;;;;5033621;28;20434;-60
2024/01/24 02:09:28;;;;;;;4.53;2.33;;;6.20;99.90;;;;;;5041831;28;20647;-59
2024/01/24 02:11:54;;;;;;;3.83;1.87;;;6.20;99.90;;;;;;5036119;28;20929;-55
2024/01/24 02:14:19;;;;;;;2.13;1.93;;;6.20;99.90;;;;;;5039163;28;20421;-58
2024/01/24 02:16:45;;;;;;;4.70;2.13;;;6.30;99.90;;;;;;5043800;28;20175;-58
2024/01/24 02:19:11;;;;;;;5.40;2.47;;;6.30;99.90;;;;;;5036381;28;20200;-58
2024/01/24 02:21:37;;;;;;;2.17;2.00;;;6.30;99.90;;;;;;5037397;28;20200;-59
2024/01/24 02:24:07;;;;;;;3.33;1.83;;;6.30;99.90;;;;;;5041815;28;20172;-58
2024/01/24 02:26:33;;;;;;;2.50;1.90;;;6.30;99.90;;;;;;5042399;28;20924;-58
2024/01/24 02:28:58;;;;;;;4.17;2.47;;;6.30;99.90;;;;;;5031461;28;20470;-59
2024/01/24 02:31:24;;;;;;;4.17;2.07;;;6.40;99.90;;;;;;5038040;28;20641;-59
2024/01/24 02:33:49;;;;;;;3.50;2.27;;;6.40;99.90;;;;;;5043188;28;20631;-59
2024/01/24 02:36:15;;;;;;;3.77;2.13;;;6.40;99.90;;;;;;5044448;28;20255;-58
2024/01/24 02:38:41;;;;;;;2.30;1.77;;;6.50;99.90;;;;;;5049498;28;20197;-58
2024/01/24 02:41:07;;;;;;;2.47;2.27;;;6.50;99.90;;;;;;5036922;28;20220;-59
2024/01/24 02:43:33;;;;;;;4.20;2.23;;;6.60;99.90;;;;;;5052766;28;20832;-58
2024/01/24 02:46:00;;;;;;;5.03;2.30;;;6.60;99.90;;;;;;5060616;28;20481;-55
2024/01/24 02:48:26;;;;;;;5.37;2.07;;;6.60;99.90;;;;;;5042520;28;20434;-58
2024/01/24 02:50:51;;;;;;;2.97;2.67;;;6.70;99.90;;;;;;5050282;28;20464;-57
2024/01/24 02:53:17;;;;;;;5.67;2.60;;;6.70;99.90;;;;;;5040329;28;20776;-60
2024/01/24 02:55:43;;;;;;;4.30;2.53;;;6.70;99.90;;;;;;5040354;28;20436;-59
2024/01/24 02:58:09;;;;;;;3.00;2.23;;;6.80;99.90;;;;;;5044146;28;20218;-59
2024/01/24 03:00:35;;;;;;;5.23;2.80;;;6.80;99.90;;;;;;5042605;28;20420;-57
2024/01/24 03:03:00;;;;;;;2.67;2.33;;;6.80;99.90;;;;;;5050495;28;20204;-58
2024/01/24 03:05:26;;;;;;;3.73;2.70;;;6.80;99.90;;;;;;5046664;28;20179;-59
2024/01/24 03:07:52;;;;;;;2.40;2.20;;;6.90;99.90;;;;;;5050695;28;20193;-59
2024/01/24 03:10:17;;;;;;;2.93;2.10;;;6.90;99.90;;;;;;5053273;28;20184;-59
2024/01/24 03:12:43;;;;;;;3.70;2.40;;;6.90;99.90;;;;;;5043824;28;20233;-58
2024/01/24 03:15:08;;;;;;;4.83;2.60;;;7.00;99.90;;;;;;5052668;28;20228;-60
2024/01/24 03:17:34;;;;;;;2.20;2.00;;;7.00;99.90;;;;;;5052236;28;20201;-58
2024/01/24 03:20:00;;;;;;;5.10;2.10;;;7.10;99.90;;;;;;5042414;28;20213;-59
2024/01/24 03:22:25;;;;;;;2.60;1.97;;;7.10;99.90;;;;;;5042821;28;20255;-58
2024/01/24 03:24:51;;;;;;;3.63;2.27;;;7.10;99.90;;;;;;5049364;28;20180;-58
2024/01/24 03:27:17;;;;;;;2.00;1.80;;;7.20;99.90;;;;;;5049460;28;20173;-58
2024/01/24 03:29:43;;;;;;;4.50;2.13;;;7.20;99.90;;;;;;5044181;28;20528;-58
2024/01/24 03:32:09;;;;;;;5.77;1.80;;;7.20;99.90;;;;;;5041671;28;20234;-59
2024/01/24 03:34:34;;;;;;;3.43;1.97;;;7.30;99.90;;;;;;5047938;28;20541;-59
2024/01/24 03:37:00;;;;;;;1.70;1.47;;;7.30;99.90;;;;;;5051364;28;20418;-59
2024/01/24 03:39:25;;;;;;;7.30;2.37;;;7.30;99.90;;;;;;5051928;28;20202;-59
2024/01/24 03:41:51;;;;;;;3.90;2.00;;;7.40;99.90;;;;;;5047141;28;20210;-59
2024/01/24 03:44:16;;;;;;;3.23;1.87;;;7.40;99.90;;;;;;5038596;28;20184;-59
2024/01/24 03:46:42;;;;;;;4.80;2.20;;;7.40;99.90;;;;;;5056295;28;20173;-59
2024/01/24 03:49:11;;;;;;;3.00;1.87;;;7.40;99.90;;;;;;5052409;28;20196;-61
2024/01/24 03:51:37;;;;;;;5.77;1.97;;;7.40;99.90;;;;;;5034832;28;20184;-58
2024/01/24 03:54:02;;;;;;;2.23;1.70;;;7.50;99.90;;;;;;5050021;28;20457;-58
2024/01/24 03:56:28;;;;;;;2.73;2.10;;;7.50;99.90;;;;;;5046825;28;20192;-57
2024/01/24 03:58:53;;;;;;;4.37;1.93;;;7.50;99.90;;;;;;5050242;28;20281;-56
2024/01/24 04:01:19;;;;;;;2.07;1.70;;;7.50;99.90;;;;;;5039124;28;20263;-59
2024/01/24 04:03:45;;;;;;;4.23;1.80;;;7.60;99.90;;;;;;5047996;28;20298;-59
2024/01/24 04:06:10;;;;;;;3.00;2.07;;;7.60;99.90;;;;;;5051590;28;20659;-59
2024/01/24 04:08:36;;;;;;;3.87;1.83;;;7.60;99.90;;;;;;5043656;28;20199;-59
2024/01/24 04:11:01;;;;;;;2.77;2.07;;;7.60;99.90;;;;;;5049468;28;20272;-57
2024/01/24 04:13:27;;;;;;;3.00;1.47;;;7.60;99.90;;;;;;5045179;28;20194;-59
2024/01/24 04:15:53;;;;;;;4.90;1.70;;;7.70;99.90;;;;;;5049847;28;20184;-57
2024/01/24 04:18:18;;;;;;;3.87;1.70;;;7.70;99.90;;;;;;5047524;28;20205;-59
2024/01/24 04:20:44;;;;;;;3.43;1.50;;;7.70;99.90;;;;;;5051450;28;20185;-59
2024/01/24 04:23:09;;;;;;;3.43;1.90;;;7.70;99.90;;;;;;5055114;28;20259;-57
2024/01/24 04:25:35;;;;;;;4.23;1.47;;;7.80;99.90;;;;;;5050981;28;20169;-58
2024/01/24 04:28:00;;;;;;;2.93;1.80;;;7.80;99.90;;;;;;5044662;28;20285;-58
2024/01/24 04:30:26;;;;;;;3.10;1.63;;;7.80;99.90;;;;;;5046344;28;20173;-59
2024/01/24 04:32:52;;;;;;;2.50;1.87;;;7.80;99.90;;;;;;5059323;28;20193;-59
2024/01/24 04:35:19;;;;;;;4.10;1.60;;;7.80;99.90;;;;;;5051549;28;20209;-60
2024/01/24 04:37:45;;;;;;;2.90;1.70;;;7.90;99.90;;;;;;5043811;28;20198;-59
2024/01/24 04:40:12;;;;;;;5.40;1.93;;;8.00;99.90;;;;;;5028740;23;20487;-62
2024/01/24 04:42:38;;;;;;;5.03;1.83;;;8.10;99.90;;;;;;5012102;28;20605;-62
2024/01/24 04:45:04;;;;;;;2.23;1.60;;;8.10;99.90;;;;;;5011220;28;20429;-64
2024/01/24 04:47:30;;;;;;;4.13;3.20;;;8.20;99.90;;;;;;5010961;28;20429;-63
2024/01/24 04:49:57;;;;;;;5.00;2.97;;;8.20;99.90;;;;;;5011350;28;20621;-62
2024/01/24 04:52:23;;;;;;;6.37;2.10;;;8.30;99.90;;;;;;5011647;28;20201;-64
2024/01/24 04:54:48;;;;;;;3.40;1.73;;;8.30;99.90;;;;;;5014785;28;20517;-64
2024/01/24 04:57:14;;;;;;;3.87;1.90;;;8.30;99.90;;;;;;5015714;28;20180;-63
2024/01/24 04:59:41;;;;;;;2.27;1.77;;;8.40;99.90;;;;;;5014870;28;20649;-65
2024/01/24 05:02:06;;;;;;;4.00;1.60;;;8.50;99.90;;;;;;5014828;28;20184;-64
2024/01/24 05:04:32;;;;;;;7.10;1.90;;;8.50;99.90;;;;;;5014915;28;20506;-64
2024/01/24 05:06:58;;;;;;;2.87;2.33;;;8.60;99.90;;;;;;5014796;28;20192;-65
2024/01/24 05:09:23;;;;;;;2.50;1.60;;;8.70;99.90;;;;;;5011405;28;20206;-64
2024/01/24 05:11:49;;;;;;;3.10;1.87;;;8.70;99.90;;;;;;5014762;28;20204;-63
2024/01/24 05:14:14;;;;;;;7.00;2.20;;;8.80;99.90;;;;;;5014379;28;20198;-62
2024/01/24 05:16:41;;;;;;;2.50;2.27;;;8.90;99.90;;;;;;5013068;28;20593;-64
2024/01/24 05:19:07;;;;;;;2.40;2.03;;;8.90;99.90;;;;;;5014558;28;20200;-63
2024/01/24 05:21:40;;;;;;;3.30;2.03;;;8.90;99.90;;;;;;5014382;28;20944;-64
2024/01/24 05:24:06;;;;;;;2.83;1.60;;;9.00;99.90;;;;;;5012891;28;20191;-64
2024/01/24 05:26:32;;;;;;;5.83;2.53;;;9.00;99.90;;;;;;5014477;28;20971;-63
2024/01/24 05:28:57;;;;;;;2.73;1.90;;;9.00;99.90;;;;;;5014222;28;20241;-64
2024/01/24 05:31:23;;;;;;;1.73;1.43;;;9.00;99.90;;;;;;5014187;28;20200;-62
2024/01/24 05:33:48;;;;;;;3.63;1.90;;;9.00;99.90;;;;;;5018452;28;20527;-64
2024/01/24 05:36:14;;;;;;;2.07;1.37;;;9.00;99.90;;;;;;5015196;28;20186;-64
2024/01/24 05:38:40;;;;;;;3.90;1.70;;;9.10;99.90;;;;;;5014464;28;20180;-63
2024/01/24 05:41:05;;;;;;;3.07;1.70;;;9.10;99.90;;;;;;5010718;28;20180;-64
2024/01/24 05:43:31;;;;;;;6.47;2.10;;;9.20;99.90;;;;;;5014354;28;20267;-64
2024/01/24 05:45:56;;;;;;;3.60;1.73;;;9.30;99.90;;;;;;5014458;28;20242;-62
2024/01/24 05:48:22;;;;;;;4.30;1.83;;;9.30;99.90;;;;;;5014421;28;20267;-63
2024/01/24 05:50:47;;;;;;;3.60;1.80;;;9.40;99.90;;;;;;5012364;28;20202;-63
2024/01/24 05:53:13;;;;;;;4.10;1.47;;;9.40;99.90;;;;;;5013993;28;20200;-63
2024/01/24 05:55:38;;;;;;;2.03;1.20;;;9.40;99.90;;;;;;5014005;28;20547;-64
2024/01/24 05:58:05;;;;;;;3.97;1.70;;;9.40;99.90;;;;;;5021997;28;20176;-63
2024/01/24 06:00:31;;;;;;;1.70;1.20;;;9.50;99.90;;;;;;5013469;28;20200;-65
2024/01/24 06:02:57;;;;;;;4.80;2.07;;;9.50;99.90;;;;;;5013862;28;20787;-62
2024/01/24 06:05:22;;;;;;;1.40;1.30;;;9.50;99.90;;;;;;5014211;28;20172;-62
2024/01/24 06:07:49;;;;;;;2.50;1.80;;;9.50;99.90;;;;;;5014168;28;20182;-63
2024/01/24 06:10:15;;;;;;;2.70;1.40;;;9.40;99.90;;;;;;5012996;28;20204;-62
2024/01/24 06:12:41;;;;;;;3.40;1.60;;;9.50;99.90;;;;;;5013600;28;20954;-62
2024/01/24 06:15:08;;;;;;;3.20;1.20;;;9.40;99.90;;;;;;5014040;28;20510;-62
2024/01/24 06:17:34;;;;;;;3.33;1.50;;;9.50;99.90;;;;;;5014062;28;20169;-62
2024/01/24 06:20:00;;;;;;;2.73;1.27;;;9.50;99.90;;;;;;5013475;28;20435;-62
2024/01/24 06:22:26;;;;;;;2.80;2.60;;;9.50;99.90;;;;;;5013685;28;20784;-63
2024/01/24 06:24:51;;;;;;;2.30;1.40;;;9.50;99.90;;;;;;5013907;28;20411;-62
2024/01/24 06:27:17;;;;;;;1.67;1.57;;;9.60;99.90;;;;;;5004318;28;20430;-62
2024/01/24 06:29:43;;;;;;;1.97;1.40;;;9.70;99.90;;;;;;5021661;28;20231;-65
2024/01/24 06:32:08;;;;;;;3.60;1.40;;;9.80;99.90;;;;;;5013638;28;20669;-64
2024/01/24 06:34:34;;;;;;;2.70;1.40;;;9.80;99.90;;;;;;5019215;28;20176;-62
2024/01/24 06:37:00;;;;;;;2.23;1.47;;;9.80;99.90;;;;;;5010264;28;20605;-63
2024/01/24 06:39:25;;;;;;;4.13;1.50;;;9.80;99.90;;;;;;5013688;28;20330;-63
2024/01/24 06:41:51;;;;;;;6.10;1.50;;;9.70;99.90;;;;;;5004048;28;20557;-64
2024/01/24 06:44:17;;;;;;;1.60;1.50;;;9.70;99.90;;;;;;5012242;28;20175;-64
2024/01/24 06:46:43;;;;;;;2.43;1.57;;;9.70;99.90;;;;;;5013171;28;20178;-64
2024/01/24 06:49:10;;;;;;;3.00;1.40;;;9.90;99.90;;;;;;5012690;28;20279;-64
2024/01/24 06:51:39;;;;;;;2.20;1.33;;;10.00;99.90;;;;;;5012706;28;20531;-63
2024/01/24 06:54:05;;;;;;;2.70;1.30;;;10.10;99.90;;;;;;5011665;28;20476;-63
2024/01/24 06:56:31;;;;;;;2.80;1.20;;;10.10;99.90;;;;;;5012833;28;20776;-63
2024/01/24 06:58:57;;;;;;;1.13;1.03;;;10.10;99.90;;;;;;5012767;28;20447;-63
2024/01/24 07:01:22;;;;;;;2.03;1.03;;;10.00;99.90;;;;;;5012717;28;20176;-63
2024/01/24 07:03:48;;;;;;;2.90;1.33;;;9.90;99.90;;;;;;5012842;28;20871;-63
2024/01/24 07:06:14;;;;;;;4.53;1.27;;;9.80;99.90;;;;;;5012556;28;20631;-63
2024/01/24 07:08:40;;;;;;;5.90;1.30;;;9.60;99.90;;;;;;5012793;28;20544;-63
2024/01/24 07:11:07;;;;;;;3.57;1.33;;;9.60;99.90;;;;;;5005066;28;20438;-63
2024/01/24 07:13:33;;;;;;;3.43;1.67;;;9.50;99.90;;;;;;5019601;28;20791;-63
2024/01/24 07:16:04;;;;;;;6.90;1.97;;;9.50;99.90;;;;;;5012692;28;20415;-63
2024/01/24 07:18:31;;;;;;;3.57;1.47;;;9.40;99.90;;;;;;5004708;28;20411;-64
2024/01/24 07:20:57;;;;;;;5.97;2.43;;;9.50;99.90;;;;;;5012513;28;20920;-63
2024/01/24 07:23:23;;;;;;;5.03;1.80;;;9.50;99.90;;;;;;5012392;28;20505;-64
2024/01/24 07:25:48;;;;;;;5.80;2.20;;;9.60;99.90;;;;;;5005595;28;20192;-64
2024/01/24 07:28:14;;;;;;;6.27;1.90;;;9.40;99.90;;;;;;5010522;28;20176;-64
2024/01/24 07:30:39;;;;;;;5.60;1.83;;;9.40;99.90;;;;;;5012175;28;20192;-63
2024/01/24 07:33:05;;;;;;;9.10;3.00;;;9.40;99.90;;;;;;5012499;28;20195;-62
2024/01/24 07:35:31;;;;;;;6.27;1.60;;;9.50;99.90;;;;;;5014551;28;20168;-63
2024/01/24 07:37:57;;;;;;;8.73;2.73;;;9.50;99.90;;;;;;5013690;28;20177;-64
2024/01/24 07:40:24;;;;;;;7.10;3.10;;;9.50;99.90;;;;;;5011631;28;20486;-64
2024/01/24 07:42:50;;;;;;;5.70;2.30;;;9.60;99.90;;;;;;5009438;28;20925;-64
2024/01/24 07:45:16;;;;;;;17.27;3.60;;;9.50;99.90;;;;;;5011861;28;20473;-63
2024/01/24 07:47:42;;;;;;;9.33;2.57;;;9.60;99.90;;;;;;5011960;28;20172;-63
2024/01/24 07:50:08;;;;;;;5.53;2.53;;;9.60;99.90;;;;;;5012172;28;20446;-64
2024/01/24 07:52:34;;;;;;;10.53;2.80;;;9.70;99.90;;;;;;5009959;28;20545;-64
2024/01/24 07:54:59;;;;;;;11.90;2.63;;;9.70;99.90;;;;;;5009742;28;20566;-66
2024/01/24 07:57:25;;;;;;;9.73;2.80;;;9.80;99.90;;;;;;5017207;28;20774;-64
2024/01/24 07:59:50;;;;;;;18.27;3.33;;;9.90;99.90;;;;;;5010990;28;20295;-64
2024/01/24 08:02:16;;;;;;;10.50;3.10;;;9.80;99.90;;;;;;5011832;28;20176;-65
2024/01/24 08:04:42;;;;;;;7.37;2.50;;;9.80;99.90;;;;;;5003046;28;20164;-64
2024/01/24 08:07:08;;;;;;;13.13;4.33;;;9.90;99.90;;;;;;5011521;28;20192;-63
2024/01/24 08:09:34;;;;;;;9.77;4.67;;;9.90;99.90;;;;;;5006144;28;20453;-64
2024/01/24 08:12:00;;;;;;;12.27;3.47;;;9.80;99.90;;;;;;5012031;28;20447;-65
2024/01/24 08:14:26;;;;;;;10.33;2.87;;;9.80;99.90;;;;;;5011113;28;20184;-64
2024/01/24 08:17:05;;;;;;;8.57;2.80;;;9.80;99.90;;;;;;5003542;28;20246;-64
2024/01/24 08:19:34;;;;;;;7.57;3.40;;;9.90;99.90;;;;;;5007843;28;20202;-64
2024/01/24 08:22:00;;;;;;;10.43;3.07;;;10.00;99.90;;;;;;5012270;28;20447;-64
2024/01/24 08:24:26;;;;;;;5.57;2.80;;;10.10;99.90;;;;;;5010112;28;20538;-63
2024/01/24 08:26:52;;;;;;;11.90;5.03;;;10.50;99.90;;;;;;5010850;28;20434;-65
2024/01/24 08:29:19;;;;;;;11.03;4.30;;;11.10;99.90;;;;;;5011757;28;20266;-65
2024/01/24 08:31:45;;;;;;;9.53;4.00;;;11.30;99.90;;;;;;5011566;28;20458;-64
2024/01/24 08:34:10;;;;;;;7.43;2.43;;;11.10;99.90;;;;;;5010300;28;20427;-65
2024/01/24 08:36:36;;;;;;;5.77;2.40;;;10.70;99.90;;;;;;5004257;28;20179;-65
2024/01/24 08:39:03;;;;;;;6.40;2.47;;;10.60;99.90;;;;;;5011093;28;20352;-64
2024/01/24 08:41:29;;;;;;;6.80;2.33;;;10.70;99.90;;;;;;5011107;28;20183;-64
2024/01/24 08:43:57;;;;;;;5.20;2.03;;;10.60;99.90;;;;;;5015896;28;20422;-64
2024/01/24 08:46:22;;;;;;;4.93;2.57;;;10.50;99.90;;;;;;5011244;28;20188;-64
2024/01/24 08:48:48;;;;;;;11.13;2.50;;;10.50;99.90;;;;;;5011071;28;20453;-64
2024/01/24 08:51:13;;;;;;;10.53;2.90;;;10.40;99.90;;;;;;5009394;28;20635;-65
2024/01/24 08:53:39;;;;;;;6.67;1.87;;;10.40;99.90;;;;;;5017047;28;20173;-62
2024/01/24 08:56:05;;;;;;;8.60;2.10;;;10.30;99.90;;;;;;5010188;28;20172;-63
2024/01/24 08:58:30;;;;;;;6.70;2.73;;;10.20;99.90;;;;;;5010641;28;20180;-64
2024/01/24 09:00:56;;;;;;;6.27;2.23;;;10.10;99.90;;;;;;5009386;28;20574;-64
2024/01/24 09:03:21;;;;;;;3.77;1.60;;;10.10;99.90;;;;;;5011185;28;20176;-65
2024/01/24 09:05:47;;;;;;;6.50;1.90;;;10.00;99.90;;;;;;5010797;28;20180;-64
2024/01/24 09:08:13;;;;;;;6.50;1.77;;;9.90;99.90;;;;;;5012121;28;20172;-65
2024/01/24 09:10:38;;;;;;;4.03;2.63;;;9.80;99.90;;;;;;5009514;28;20203;-65
2024/01/24 09:13:04;;;;;;;9.27;2.33;;;9.80;99.90;;;;;;5012610;28;20540;-65
2024/01/24 09:15:29;;;;;;;7.27;2.10;;;9.60;99.90;;;;;;5016765;28;20195;-65
2024/01/24 09:17:55;;;;;;;6.77;2.20;;;9.40;99.90;;;;;;5010990;28;20187;-65
2024/01/24 09:20:20;;;;;;;5.27;2.00;;;9.40;99.90;;;;;;5011401;28;20524;-65
2024/01/24 09:22:46;;;;;;;6.30;1.70;;;9.40;99.90;;;;;;5011274;28;20180;-65
2024/01/24 09:25:12;;;;;;;7.20;1.97;;;9.50;99.90;;;;;;5010704;28;20180;-64
2024/01/24 09:27:38;;;;;;;7.47;2.33;;;9.60;99.90;;;;;;5015297;28;20184;-63
2024/01/24 09:30:04;;;;;;;4.47;1.93;;;9.60;99.90;;;;;;5008243;28;20204;-66
2024/01/24 09:32:29;;;;;;;2.10;1.43;;;9.70;99.90;;;;;;5011037;28;20212;-64
2024/01/24 09:34:55;;;;;;;9.33;2.47;;;9.70;99.90;;;;;;5009820;28;20927;-65
2024/01/24 09:37:21;;;;;;;7.00;2.17;;;9.80;99.90;;;;;;5009316;28;20180;-65
2024/01/24 09:39:48;;;;;;;5.80;1.80;;;10.00;99.90;;;;;;5014356;28;20216;-62
2024/01/24 09:42:20;;;;;;;8.07;1.93;;;10.10;99.90;;;;;;5009014;28;20176;-64
2024/01/24 09:44:50;;;;;;;6.17;2.23;;;10.10;99.90;;;;;;5016642;28;20729;-67
2024/01/24 09:47:17;;;;;;;7.07;2.60;;;10.20;99.90;;;;;;5013781;28;20430;-64
2024/01/24 09:49:43;;;;;;;7.40;2.80;;;10.30;99.90;;;;;;5013523;28;20803;-63
2024/01/24 09:52:12;;;;;;;9.57;2.90;;;10.30;99.90;;;;;;5013537;28;20591;-66
2024/01/24 09:54:38;;;;;;;7.30;1.30;;;10.40;99.90;;;;;;5009127;28;20959;-64
2024/01/24 09:57:06;;;;;;;9.33;2.50;;;10.40;99.90;;;;;;5010819;28;20408;-65
2024/01/24 09:59:31;;;;;;;13.07;3.67;;;10.40;99.90;;;;;;5013511;28;20450;-65
2024/01/24 10:01:58;;;;;;;10.47;2.70;;;10.40;99.90;;;;;;5014188;28;20419;-65
2024/01/24 10:04:24;;;;;;;13.90;2.90;;;10.50;99.90;;;;;;5013949;28;20246;-66
2024/01/24 10:06:52;;;;;;;11.13;3.03;;;10.50;99.90;;;;;;5013942;28;20525;-64
2024/01/24 10:09:19;;;;;;;7.90;3.17;;;10.70;99.90;;;;;;5011148;28;20952;-64
2024/01/24 10:11:44;;;;;;;8.30;3.00;;;10.80;99.90;;;;;;5011715;28;20451;-64
2024/01/24 10:14:11;;;;;;;5.90;1.80;;;10.70;99.90;;;;;;5013710;28;20441;-65
2024/01/24 10:16:37;;;;;;;8.07;2.03;;;10.70;99.90;;;;;;5013774;28;20184;-65
2024/01/24 10:19:04;;;;;;;11.33;4.53;;;10.70;99.90;;;;;;5011978;28;20431;-64
2024/01/24 10:21:30;;;;;;;7.50;2.37;;;10.70;99.90;;;;;;5012752;28;20415;-65
2024/01/24 10:23:57;;;;;;;5.87;2.40;;;10.70;99.90;;;;;;5013485;28;20425;-64
2024/01/24 10:26:25;;;;;;;10.00;2.43;;;10.70;99.90;;;;;;5002560;28;20239;-65
2024/01/24 10:28:50;;;;;;;11.77;2.63;;;10.70;99.90;;;;;;5008031;28;20475;-66
2024/01/24 10:31:17;;;;;;;4.00;1.43;;;10.80;99.90;;;;;;5010819;28;20462;-66
2024/01/24 10:33:43;;;;;;;11.83;3.03;;;10.80;99.90;;;;;;5010765;28;20639;-66
2024/01/24 10:36:10;;;;;;;9.73;3.37;;;11.00;99.90;;;;;;5011544;28;20845;-66
2024/01/24 10:38:39;;;;;;;10.20;3.33;;;11.10;99.90;;;;;;5002224;28;20520;-65
2024/01/24 10:41:09;;;;;;;13.30;3.00;;;11.00;99.90;;;;;;5011354;28;20408;-66
2024/01/24 10:43:35;;;;;;;8.60;2.83;;;11.00;99.90;;;;;;5030345;22;20787;-60
2024/01/24 10:46:01;;;;;;;6.17;2.67;;;11.10;99.90;;;;;;5009472;28;20423;-62
2024/01/24 10:48:27;;;;;;;10.57;3.33;;;11.10;99.90;;;;;;5008793;28;20438;-61
2024/01/24 10:50:56;;;;;;;9.87;2.97;;;11.10;99.90;;;;;;5011650;28;20423;-62
2024/01/24 10:53:23;;;;;;;12.23;3.03;;;11.10;99.90;;;;;;5005741;28;20467;-61
2024/01/24 10:55:51;;;;;;;11.10;3.77;;;11.10;99.90;;;;;;5004935;28;20494;-62
2024/01/24 10:58:17;;;;;;;12.60;3.27;;;11.20;99.90;;;;;;5010290;28;20427;-61
2024/01/24 11:00:42;;;;;;;9.40;3.13;;;11.20;99.90;;;;;;5010697;28;20525;-62
2024/01/24 11:03:08;;;;;;;10.83;3.13;;;11.20;99.90;;;;;;5010720;28;20530;-61
2024/01/24 11:05:45;;;;;;;8.97;2.87;;;11.20;99.90;;;;;;5010809;28;20654;-61
2024/01/24 11:08:27;;;;;;;5.40;2.83;;;11.30;99.90;;;;;;5009351;28;20917;-63
2024/01/24 11:10:56;;;;;;;9.00;2.80;;;11.30;99.90;;;;;;5006350;28;20439;-62
2024/01/24 11:13:23;;;;;;;10.37;4.33;;;11.30;99.90;;;;;;5010900;28;20562;-61
2024/01/24 11:15:49;;;;;;;12.43;2.63;;;11.20;99.90;;;;;;5011191;28;20438;-62
2024/01/24 11:18:18;;;;;;;7.87;2.80;;;11.20;99.90;;;;;;5010606;28;20755;-61
2024/01/24 11:20:49;;;;;;;12.13;3.73;;;11.20;99.90;;;;;;5005269;28;20183;-61
2024/01/24 11:23:38;;;;;;;12.53;4.70;;;11.20;99.90;;;;;;5007679;28;20816;-63
2024/01/24 11:26:04;;;;;;;9.77;3.70;;;11.20;99.90;;;;;;5009314;28;20514;-62
2024/01/24 11:28:30;;;;;;;6.77;3.30;;;11.20;99.90;;;;;;5010517;28;20422;-62
2024/01/24 11:30:56;;;;;;;8.23;2.83;;;11.20;99.90;;;;;;5017544;28;20431;-61
2024/01/24 11:33:22;;;;;;;10.93;3.20;;;11.30;99.90;;;;;;5013542;28;20295;-61
2024/01/24 11:35:50;;;;;;;7.53;2.40;;;11.20;99.90;;;;;;5013988;28;20529;-62
2024/01/24 11:38:26;;;;;;;7.63;2.83;;;11.30;99.90;;;;;;5013639;28;20187;-63
2024/01/24 11:41:01;;;;;;;8.70;3.37;;;11.30;99.90;;;;;;5010948;28;20484;-63
2024/01/24 11:43:32;;;;;;;10.83;3.27;;;11.30;99.90;;;;;;5011724;28;20615;-62
2024/01/24 11:46:03;;;;;;;12.93;3.07;;;11.20;99.90;;;;;;5018435;28;20446;-64
2024/01/24 11:48:31;;;;;;;59.67;35.57;;;11.30;99.90;;;;;;5012591;28;20929;-62
2024/01/24 11:51:01;;;;;;;10.43;3.07;;;11.30;99.90;;;;;;5015096;28;20426;-63
2024/01/24 11:56:49;;;;;;;6.67;2.47;;;11.20;99.90;;;;;;4999131;28;20488;-64
2024/01/24 11:59:20;;;;;;;12.90;3.83;;;11.50;99.90;;;;;;5010775;28;20419;-63
2024/01/24 12:01:46;;;;;;;12.70;3.27;;;11.50;99.90;;;;;;5008427;28;20192;-61
2024/01/24 12:04:12;;;;;;;17.67;3.10;;;11.60;99.90;;;;;;5015551;28;20461;-62
2024/01/24 12:06:38;;;;;;;13.70;3.50;;;11.60;99.90;;;;;;5011368;28;20426;-61
2024/01/24 12:09:08;;;;;;;9.63;2.93;;;11.70;99.90;;;;;;5008826;28;20184;-62
2024/01/24 12:11:34;;;;;;;13.93;2.90;;;11.60;99.90;;;;;;5011613;28;20611;-62
2024/01/24 12:14:00;;;;;;;11.60;2.53;;;11.70;99.90;;;;;;5012737;28;20921;-62
2024/01/24 12:16:28;;;;;;;14.23;3.20;;;11.70;99.90;;;;;;5010068;28;20489;-62
2024/01/24 12:18:54;;;;;;;7.63;2.53;;;11.50;99.90;;;;;;5010136;28;20438;-64
2024/01/24 12:21:20;;;;;;;9.27;2.33;;;11.50;99.90;;;;;;5011316;28;20608;-64
2024/01/24 12:23:47;;;;;;;10.40;2.87;;;11.40;99.90;;;;;;5009936;28;20953;-63
2024/01/24 12:26:15;;;;;;;12.00;3.50;;;11.40;99.90;;;;;;5010895;28;20493;-63
2024/01/24 12:28:40;;;;;;;10.70;2.70;;;11.40;99.90;;;;;;5015995;28;20518;-63
2024/01/24 12:31:06;;;;;;;12.40;2.73;;;11.30;99.90;;;;;;5010626;28;20485;-63
2024/01/24 12:33:33;;;;;;;12.20;2.43;;;11.30;99.90;;;;;;5011370;28;20314;-63
2024/01/24 12:36:04;;;;;;;4.97;2.10;;;11.30;99.90;;;;;;5013003;28;20204;-63
2024/01/24 12:38:30;;;;;;;10.90;3.23;;;11.30;99.90;;;;;;5015651;28;20423;-63
2024/01/24 12:40:55;;;;;;;17.03;3.47;;;11.20;99.90;;;;;;5012824;28;20433;-63
2024/01/24 12:43:22;;;;;;;12.40;2.50;;;11.20;99.90;;;;;;5011548;28;20245;-64
2024/01/24 12:45:48;;;;;;;16.53;3.60;;;11.10;99.90;;;;;;5015530;28;20326;-64
2024/01/24 12:48:14;;;;;;;9.23;3.50;;;11.10;99.90;;;;;;5014097;28;20503;-61
2024/01/24 12:50:40;;;;;;;10.13;3.47;;;11.10;99.90;;;;;;5011477;28;20441;-63